Terminal Aerodrome Forecast
Issued by NWS Sioux Falls, SD

Home | Current Version | Previous Version | Text Only | Print | Product List | Glossary Off
Versions: 1 2 3 4 5 6 7 8 9 10 11 12 13 14 15 16 17 18 19 20 21 22 23 24 25 26 27

927
FTUS43 KFSD 210523
TAFSUX
TAF
KSUX 210523Z 2106/2206 14008KT P6SM SKC WS015/20040KT
     FM211100 15008KT P6SM SKC
     FM211400 19009KT P6SM SKC
     FM211800 19012G18KT P6SM SCT250
     FM220100 14008KT P6SM BKN200=

USA.gov is the U.S. government's official web portal to all federal, state and local government web resources and services.